createdAt,value
2023-02-14T00:13:17.354Z,4.88
2023-02-14T00:28:17.197Z,4.72
2023-02-14T00:43:17.044Z,4.72
2023-02-14T00:58:16.890Z,4.88
2023-02-14T01:13:16.734Z,4.91
2023-02-14T01:28:16.590Z,4.46
2023-02-14T01:43:16.423Z,4.47
2023-02-14T01:58:16.289Z,4.46
2023-02-14T02:13:16.121Z,4.26
2023-02-14T02:28:15.968Z,4.52
2023-02-14T02:43:15.907Z,4.44
2023-02-14T02:58:15.647Z,4.16
2023-02-14T03:13:15.482Z,4.19
2023-02-14T03:28:15.335Z,4.21
2023-02-14T03:43:15.170Z,4.06
2023-02-14T03:58:15.010Z,4.16
2023-02-14T04:13:15.165Z,4.15
2023-02-14T04:28:14.690Z,4.01
2023-02-14T04:43:14.514Z,4.10
2023-02-14T04:58:14.360Z,4.03
2023-02-14T05:13:14.261Z,3.80
2023-02-14T05:28:14.059Z,4.14
2023-02-14T05:43:13.867Z,4.00
2023-02-14T05:58:13.734Z,3.90
2023-02-14T06:13:13.562Z,3.89
2023-02-14T06:28:13.391Z,4.01
2023-02-14T06:43:13.226Z,4.12
2023-02-14T06:58:13.088Z,4.18
2023-02-14T07:13:12.926Z,4.15
2023-02-14T07:28:12.757Z,4.26
2023-02-14T07:43:12.606Z,4.37
2023-02-14T07:58:12.438Z,4.51
2023-02-14T08:13:12.359Z,4.64
2023-02-14T08:28:12.104Z,4.83
2023-02-14T08:43:11.965Z,4.91
2023-02-14T08:58:11.802Z,5.02
2023-02-14T09:13:11.668Z,5.10
2023-02-14T09:28:11.494Z,5.30
2023-02-14T09:43:11.401Z,5.50
2023-02-14T09:58:11.180Z,5.64
2023-02-14T10:13:11.022Z,5.83
2023-02-14T10:28:10.872Z,5.92
2023-02-14T10:43:10.709Z,5.96
2023-02-14T10:58:10.571Z,6.06
2023-02-14T11:13:10.406Z,6.29
2023-02-14T11:28:10.245Z,6.10
2023-02-14T11:43:14.577Z,6.09
2023-02-14T11:58:09.935Z,6.21
2023-02-14T12:13:09.784Z,6.26
2023-02-14T12:28:09.644Z,6.35
2023-02-14T12:43:09.462Z,6.13
2023-02-14T12:58:09.305Z,6.32
2023-02-14T13:13:09.269Z,6.33
2023-02-14T13:28:11.932Z,6.29
2023-02-14T13:43:09.029Z,6.25
2023-02-14T13:58:08.830Z,6.16
2023-02-14T14:13:08.874Z,6.16
2023-02-14T14:28:08.373Z,6.22
2023-02-14T14:43:08.204Z,6.13
2023-02-14T14:58:08.081Z,6.03
2023-02-14T15:13:07.911Z,5.88
2023-02-14T15:28:07.762Z,5.71
2023-02-14T15:43:07.595Z,5.68
2023-02-14T15:58:07.450Z,5.56
2023-02-14T16:13:07.345Z,5.37
2023-02-14T16:28:07.307Z,5.30
2023-02-14T16:43:06.964Z,5.25
2023-02-14T16:58:06.835Z,5.19
2023-02-14T17:13:06.669Z,5.09
2023-02-14T17:28:06.540Z,5.05
2023-02-14T17:43:06.335Z,4.98
2023-02-14T17:58:06.211Z,4.89
2023-02-14T18:13:06.036Z,4.86
2023-02-14T18:28:05.883Z,4.86
2023-02-14T18:43:05.709Z,4.86
2023-02-14T18:58:07.734Z,4.76
2023-02-14T19:13:05.496Z,4.73
2023-02-14T19:28:05.253Z,4.62
2023-02-14T19:43:07.141Z,4.57
2023-02-14T19:58:04.993Z,4.58
2023-02-14T20:13:04.771Z,4.51
2023-02-14T20:28:04.617Z,4.52
2023-02-14T20:43:04.488Z,4.42
2023-02-14T20:58:04.335Z,4.32
2023-02-14T21:13:04.183Z,4.32
2023-02-14T21:28:04.002Z,4.22
2023-02-14T21:43:03.842Z,4.14
2023-02-14T21:58:03.705Z,4.08
2023-02-14T22:13:03.541Z,4.00
2023-02-14T22:28:03.359Z,4.00
2023-02-14T22:43:03.202Z,3.79
2023-02-14T22:58:03.047Z,3.71
2023-02-14T23:13:02.865Z,3.67
2023-02-14T23:28:02.716Z,3.64
2023-02-14T23:43:02.540Z,3.18
2023-02-14T23:58:02.394Z,2.23
